Impacts TAF Board INFO
FOR SITUATIONAL AWARENESS. NOT TO BE USED FOR FLIGHT PLANNING PURPOSES.
IDs:

KCVG - Cincinnati Intl, KY, US

Issued at 1938 UTC 24 Apr 2018
Updated at 2041 UTC 24 Apr 2018
Potential Impact None Slight Moderate High
Time1952Z 24/21Z 24/22Z 24/23Z 25/00Z 25/01Z 25/02Z 25/03Z 25/04Z 25/05Z 25/06Z 25/07Z 25/08Z 25/09Z>>
Type OBS PRVL PRVL PRVL PRVL PRVL PRVL PRVL PRVL PRVL PRVL PRVL PRVL PRVL
VIS 2 2 2 2 5 5 5 5 5 5 5 5 5 5
CIG 6 6 6 6 6 6 6 6 6 6 6 6 6 6
Cover OVC OVC OVC OVC OVC OVC OVC OVC OVC OVC OVC OVC OVC OVC
FltCat IFR IFR IFR IFR IFR IFR IFR IFR IFR IFR IFR IFR IFR IFR
WX -DZ BR -SHRA BR -SHRA BR -SHRA BR BR VCSH BR VCSH BR VCSH BR VCSH BR VCSH BR VCSH BR VCSH BR VCSH BR VCSH BR VCSH
WDir 50 40 40 40 10 10 10 10 10 10 10 10 10 10
WSpd 8 8 8 8 6 6 6 6 6 6 6 6 6 6
WGst -- -- -- -- -- -- -- -- -- -- -- -- -- --

Raw TAF
KCVG 241938Z 2420/2524 04008KT 2SM -SHRA BR BKN006 OVC012
  FM250000 01006KT 5SM BR VCSH OVC006
  FM251300 35010KT P6SM OVC012
  FM251800 33009KT P6SM BKN025
  FM252100 33006KT P6SM BKN035


Raw METAR
KCVG 241952Z 05008KT 2SM -DZ BR BKN006 BKN012 OVC030 13/13 A2989 RMK AO2 SFC VIS 2 1/2 SLP120 P0002 T01280128
KCVG 241940Z 06007KT 2SM -DZ BR BKN006 BKN011 OVC021 13/13 A2990 RMK AO2 P0002 T01330128
KCVG 241852Z 05008KT 1 1/2SM R18C/5000VP6000FT -DZ BR BKN006 OVC014 13/12 A2990 RMK AO2 TWR VIS 2 RAE41DZB41 SLP123 P0002 T01280122
KCVG 241838Z 05008KT 1 1/2SM R18C/5500VP6000FT -RA BR BKN006 OVC014 13/13 A2990 RMK AO2 TWR VIS 2 P0002 T01280128
KCVG 241752Z 04007KT 2SM -RA BR BKN007 OVC013 13/12 A2991 RMK AO2 RAB10 SLP125 VIS S11/2 P0000 60015 T01280122 10133 20111 58013
KCVG 241736Z 05008KT 2SM R18C/5000VP6000FT -RA BR BKN008 OVC014 13/12 A2991 RMK AO2 SFC VIS 2 1/2 RAB10 P0000 T01280117

METAR Board
Radar Display
Forecast Discussion

FOR SITUATIONAL AWARENESS. NOT TO BE USED FOR FLIGHT PLANNING PURPOSES.